createdAt,value
2019-03-31T00:01:56.783Z,9.60
2019-03-31T00:04:27.949Z,9.60
2019-03-31T00:06:59.079Z,9.60
2019-03-31T00:09:30.293Z,9.50
2019-03-31T00:12:02.045Z,9.50
2019-03-31T00:14:33.067Z,9.50
2019-03-31T00:17:04.428Z,9.50
2019-03-31T00:19:35.362Z,9.50
2019-03-31T00:22:06.509Z,9.50
2019-03-31T00:24:37.474Z,9.50
2019-03-31T00:27:08.602Z,9.50
2019-03-31T00:29:39.852Z,9.50
2019-03-31T00:32:10.859Z,9.50
2019-03-31T00:34:42.082Z,9.50
2019-03-31T00:37:16.109Z,9.50
2019-03-31T00:39:47.150Z,9.50
2019-03-31T00:42:18.659Z,9.50
2019-03-31T00:44:49.655Z,9.50
2019-03-31T00:47:20.724Z,9.40
2019-03-31T00:49:51.950Z,9.40
2019-03-31T00:52:23.004Z,9.40
2019-03-31T00:54:54.310Z,9.30
2019-03-31T00:57:25.397Z,9.30
2019-03-31T00:59:56.499Z,9.30
2019-03-31T01:02:31.939Z,9.20
2019-03-31T01:05:03.913Z,9.20
2019-03-31T01:07:36.431Z,9.30
2019-03-31T01:10:08.090Z,9.20
2019-03-31T01:12:39.947Z,9.30
2019-03-31T01:15:16.010Z,9.20
2019-03-31T01:17:49.168Z,9.30
2019-03-31T01:20:21.470Z,9.30
2019-03-31T01:22:52.611Z,9.30
2019-03-31T01:25:24.234Z,9.30
2019-03-31T01:27:56.064Z,9.30
2019-03-31T01:30:27.436Z,9.30
2019-03-31T01:32:59.812Z,9.30
2019-03-31T01:35:31.294Z,9.30
2019-03-31T01:38:03.699Z,9.40
2019-03-31T01:40:35.228Z,9.40
2019-03-31T01:43:06.466Z,9.40
2019-03-31T01:45:37.758Z,9.40
2019-03-31T01:48:09.108Z,9.40
2019-03-31T01:50:40.333Z,9.30
2019-03-31T01:53:12.398Z,9.30
2019-03-31T01:55:43.555Z,9.30
2019-03-31T01:58:15.316Z,9.30
2019-03-31T02:00:53.002Z,9.30
2019-03-31T02:03:24.720Z,9.30
2019-03-31T02:05:56.230Z,9.30
2019-03-31T02:08:27.653Z,9.30
2019-03-31T02:10:58.650Z,9.30
2019-03-31T02:13:29.910Z,9.30
2019-03-31T02:16:01.650Z,9.30
2019-03-31T02:18:32.975Z,9.30
2019-03-31T02:21:05.436Z,9.30
2019-03-31T02:23:36.470Z,9.30
2019-03-31T02:26:07.498Z,9.30
2019-03-31T02:28:38.644Z,9.30
2019-03-31T02:31:09.715Z,9.20
2019-03-31T02:33:40.838Z,9.20
2019-03-31T02:36:12.041Z,9.20
2019-03-31T02:38:43.122Z,9.10
2019-03-31T02:41:14.393Z,9.10
2019-03-31T02:43:46.066Z,9.00
2019-03-31T02:46:17.005Z,9.00
2019-03-31T02:48:48.085Z,9.00
2019-03-31T02:51:20.354Z,9.00
2019-03-31T02:53:51.525Z,8.90
2019-03-31T02:56:24.996Z,8.90
2019-03-31T02:58:58.480Z,8.90
2019-03-31T03:01:30.758Z,8.90
2019-03-31T03:04:07.951Z,8.90
2019-03-31T03:06:39.728Z,8.80
2019-03-31T03:09:10.972Z,8.80
2019-03-31T03:11:44.528Z,8.70
2019-03-31T03:14:17.561Z,8.70
2019-03-31T03:16:48.889Z,8.70
2019-03-31T03:19:20.338Z,8.60
2019-03-31T03:21:51.594Z,8.60
2019-03-31T03:24:22.829Z,8.60
2019-03-31T03:26:54.263Z,8.50
2019-03-31T03:29:25.370Z,8.50
2019-03-31T03:31:56.361Z,8.50
2019-03-31T03:34:27.395Z,8.40
2019-03-31T03:36:58.581Z,8.40
2019-03-31T03:39:29.831Z,8.40
2019-03-31T03:42:02.481Z,8.40
2019-03-31T03:44:34.276Z,8.40
2019-03-31T03:47:05.762Z,8.30
2019-03-31T03:49:36.658Z,8.30
2019-03-31T03:52:07.600Z,8.30
2019-03-31T03:54:38.616Z,8.20
2019-03-31T03:57:10.016Z,8.20
2019-03-31T03:59:42.841Z,8.20
2019-03-31T04:02:15.034Z,8.20
2019-03-31T04:04:46.210Z,8.10
2019-03-31T04:07:17.418Z,8.10
2019-03-31T04:09:48.643Z,8.00
2019-03-31T04:12:19.810Z,8.00
2019-03-31T04:14:50.863Z,8.00
2019-03-31T04:17:22.054Z,7.90
2019-03-31T04:19:53.266Z,7.90
2019-03-31T04:22:24.292Z,7.90
2019-03-31T04:24:55.449Z,7.90
2019-03-31T04:27:26.428Z,7.90
2019-03-31T04:29:57.378Z,7.90
2019-03-31T04:32:29.573Z,8.00
2019-03-31T04:35:00.610Z,8.00
2019-03-31T04:37:31.990Z,8.00
2019-03-31T04:40:03.008Z,8.00
2019-03-31T04:42:34.815Z,8.10
2019-03-31T04:45:07.652Z,8.20
2019-03-31T04:47:39.023Z,8.30
2019-03-31T04:50:11.651Z,8.40
2019-03-31T04:52:42.726Z,8.60
2019-03-31T04:55:13.878Z,8.70
2019-03-31T04:57:46.842Z,8.80
2019-03-31T05:00:18.442Z,8.90
2019-03-31T05:02:50.082Z,9.10
2019-03-31T05:05:21.150Z,9.30
2019-03-31T05:07:52.392Z,9.50
2019-03-31T05:10:23.681Z,9.60
2019-03-31T05:12:55.044Z,9.80
2019-03-31T05:15:26.106Z,10.10
2019-03-31T05:17:57.413Z,10.40
2019-03-31T05:20:28.404Z,10.70
2019-03-31T05:23:01.171Z,10.80
2019-03-31T05:25:32.390Z,11.00
2019-03-31T05:28:03.805Z,11.20
2019-03-31T05:30:35.284Z,11.40
2019-03-31T05:33:06.738Z,11.60
2019-03-31T05:35:37.814Z,11.80
2019-03-31T05:38:08.889Z,12.00
2019-03-31T05:40:40.061Z,12.10
2019-03-31T05:43:13.502Z,12.20
2019-03-31T05:45:44.540Z,12.40
2019-03-31T05:48:16.274Z,12.50
2019-03-31T05:50:47.316Z,12.60
2019-03-31T05:53:18.309Z,12.80
2019-03-31T05:55:49.491Z,13.00
2019-03-31T05:58:20.536Z,13.10
2019-03-31T06:00:53.871Z,13.20
2019-03-31T06:03:25.630Z,13.30
2019-03-31T06:05:56.846Z,13.40
2019-03-31T06:08:27.988Z,13.50
2019-03-31T06:10:59.162Z,13.60
2019-03-31T06:13:30.232Z,13.70
2019-03-31T06:16:01.610Z,13.90
2019-03-31T06:18:32.764Z,14.20
2019-03-31T06:21:04.220Z,14.20
2019-03-31T06:23:35.314Z,14.20
2019-03-31T06:26:06.548Z,14.40
2019-03-31T06:28:37.894Z,14.30
2019-03-31T06:31:08.994Z,14.30
2019-03-31T06:33:40.034Z,14.30
2019-03-31T06:36:11.227Z,14.30
2019-03-31T06:38:42.191Z,14.30
2019-03-31T06:41:13.192Z,14.30
2019-03-31T06:43:45.379Z,14.50
2019-03-31T06:46:16.934Z,14.50
2019-03-31T06:48:47.910Z,14.70
2019-03-31T06:51:19.076Z,14.90
2019-03-31T06:53:50.142Z,15.10
2019-03-31T06:56:22.409Z,15.20
2019-03-31T06:58:53.510Z,15.30
2019-03-31T07:01:24.767Z,15.50
2019-03-31T07:03:56.114Z,15.60
2019-03-31T07:06:27.174Z,15.80
2019-03-31T07:08:58.213Z,16.10
2019-03-31T07:11:29.373Z,16.40
2019-03-31T07:14:00.413Z,16.30
2019-03-31T07:16:31.644Z,16.20
2019-03-31T07:19:02.686Z,16.30
2019-03-31T07:21:33.834Z,16.60
2019-03-31T07:24:04.764Z,16.90
2019-03-31T07:26:36.106Z,17.00
2019-03-31T07:29:07.144Z,17.30
2019-03-31T07:31:38.215Z,17.50
2019-03-31T07:34:09.306Z,17.80
2019-03-31T07:36:41.174Z,17.90
2019-03-31T07:39:12.446Z,18.30
2019-03-31T07:41:43.742Z,18.50
2019-03-31T07:44:15.480Z,18.70
2019-03-31T07:46:46.636Z,18.80
2019-03-31T07:49:17.718Z,19.00
2019-03-31T07:51:48.839Z,19.00
2019-03-31T07:54:19.890Z,19.00
2019-03-31T07:56:51.006Z,19.10
2019-03-31T07:59:23.747Z,19.30
2019-03-31T08:01:54.813Z,19.40
2019-03-31T08:04:25.951Z,19.60
2019-03-31T08:06:57.101Z,19.50
2019-03-31T08:09:28.314Z,19.40
2019-03-31T08:11:59.999Z,19.50
2019-03-31T08:14:30.980Z,19.70
2019-03-31T08:17:01.980Z,19.80
2019-03-31T08:19:32.987Z,19.90
2019-03-31T08:22:04.110Z,20.10
2019-03-31T08:24:44.393Z,20.20
2019-03-31T08:27:16.358Z,20.20
2019-03-31T08:29:55.632Z,20.10
2019-03-31T08:32:20.352Z,20.20
2019-03-31T08:34:51.539Z,20.30
2019-03-31T08:37:24.649Z,20.40
2019-03-31T08:39:55.766Z,20.40
2019-03-31T08:42:28.478Z,20.50
2019-03-31T08:44:59.607Z,20.50
2019-03-31T08:47:30.792Z,20.30
2019-03-31T08:50:02.730Z,20.00
2019-03-31T08:52:34.362Z,20.10
2019-03-31T08:55:06.019Z,20.10
2019-03-31T08:57:37.122Z,20.10
2019-03-31T09:00:16.316Z,20.10
2019-03-31T09:02:48.446Z,20.00
2019-03-31T09:05:19.603Z,19.80
2019-03-31T09:07:51.043Z,19.30
2019-03-31T09:10:22.257Z,18.90
2019-03-31T09:12:53.762Z,18.60
2019-03-31T09:15:26.315Z,18.60
2019-03-31T09:17:57.485Z,18.70
2019-03-31T09:20:28.822Z,18.60
2019-03-31T09:23:00.666Z,18.30
2019-03-31T09:25:31.768Z,18.20
2019-03-31T09:28:03.261Z,18.10
2019-03-31T09:30:35.542Z,18.50
2019-03-31T09:33:09.127Z,19.20
2019-03-31T09:35:40.214Z,19.90
2019-03-31T09:38:11.343Z,20.50
2019-03-31T09:40:42.838Z,20.80
2019-03-31T09:43:13.884Z,20.90
2019-03-31T09:45:44.887Z,20.90
2019-03-31T09:48:15.904Z,20.90
2019-03-31T09:50:47.041Z,21.00
2019-03-31T09:53:18.042Z,20.90
2019-03-31T09:55:49.290Z,20.90
2019-03-31T09:58:20.533Z,20.90
2019-03-31T10:00:52.702Z,21.10
2019-03-31T10:03:26.008Z,21.70
2019-03-31T10:06:10.130Z,22.20
2019-03-31T10:08:30.607Z,22.90
2019-03-31T10:11:02.951Z,23.20
2019-03-31T10:13:35.899Z,23.40
2019-03-31T10:16:07.041Z,23.60
2019-03-31T10:18:38.364Z,23.70
2019-03-31T10:21:09.549Z,23.70
2019-03-31T10:23:41.095Z,23.80
2019-03-31T10:26:16.066Z,23.90
2019-03-31T10:28:46.829Z,23.80
2019-03-31T10:31:18.006Z,23.70
2019-03-31T10:33:53.673Z,23.80
2019-03-31T10:36:27.760Z,23.30
2019-03-31T10:38:59.475Z,22.90
2019-03-31T10:41:32.639Z,22.70
2019-03-31T10:44:04.196Z,22.50
2019-03-31T10:46:35.575Z,22.20
2019-03-31T10:49:06.834Z,21.70
2019-03-31T10:51:37.838Z,21.90
2019-03-31T10:54:09.124Z,22.10
2019-03-31T10:56:41.692Z,22.20
2019-03-31T10:59:12.907Z,22.50
2019-03-31T11:01:44.653Z,23.00
2019-03-31T11:04:16.147Z,23.40
2019-03-31T11:06:58.405Z,23.60
2019-03-31T11:09:20.201Z,23.60
2019-03-31T11:11:51.864Z,23.90
2019-03-31T11:14:23.224Z,23.60
2019-03-31T11:16:54.639Z,23.00
2019-03-31T11:19:26.107Z,22.60
2019-03-31T11:22:10.608Z,22.30
2019-03-31T11:24:41.693Z,22.20
2019-03-31T11:27:13.373Z,21.90
2019-03-31T11:29:44.641Z,21.60
2019-03-31T11:32:15.777Z,21.30
2019-03-31T11:34:46.869Z,20.90
2019-03-31T11:37:20.239Z,20.50
2019-03-31T11:39:51.339Z,20.50
2019-03-31T11:42:22.314Z,20.40
2019-03-31T11:44:53.701Z,20.20
2019-03-31T11:47:25.867Z,20.20
2019-03-31T11:49:56.864Z,20.20
2019-03-31T11:52:28.463Z,20.00
2019-03-31T11:54:59.685Z,19.60
2019-03-31T11:57:30.843Z,19.30
2019-03-31T12:00:02.151Z,19.50
2019-03-31T12:02:34.645Z,19.90
2019-03-31T12:05:06.418Z,19.90
2019-03-31T12:07:46.673Z,19.80
2019-03-31T12:10:13.350Z,19.60
2019-03-31T12:12:44.596Z,19.30
2019-03-31T12:15:16.257Z,19.30
2019-03-31T12:17:47.701Z,19.60
2019-03-31T12:20:19.337Z,20.00
2019-03-31T12:22:50.499Z,20.40
2019-03-31T12:25:23.131Z,20.20
2019-03-31T12:27:54.169Z,20.20
2019-03-31T12:30:31.457Z,19.90
2019-03-31T12:33:02.520Z,19.50
2019-03-31T12:35:33.619Z,19.00
2019-03-31T12:38:05.186Z,18.90
2019-03-31T12:40:41.793Z,18.90
2019-03-31T12:43:12.871Z,18.70
2019-03-31T12:45:44.052Z,18.40
2019-03-31T12:48:16.871Z,18.20
2019-03-31T12:50:52.141Z,18.10
2019-03-31T12:53:24.039Z,18.00
2019-03-31T12:56:00.291Z,17.90
2019-03-31T12:58:28.330Z,17.80
2019-03-31T13:00:59.907Z,17.60
2019-03-31T13:03:33.300Z,17.40
2019-03-31T13:06:04.574Z,17.40
2019-03-31T13:08:36.141Z,17.40
2019-03-31T13:11:08.901Z,17.50
2019-03-31T13:13:40.019Z,17.50
2019-03-31T13:16:11.477Z,17.40
2019-03-31T13:18:42.818Z,17.40
2019-03-31T13:21:14.306Z,17.30
2019-03-31T13:23:48.140Z,17.20
2019-03-31T13:26:20.124Z,17.10
2019-03-31T13:28:52.413Z,17.00
2019-03-31T13:31:23.688Z,16.90
2019-03-31T13:33:55.447Z,16.80
2019-03-31T13:36:26.524Z,16.80
2019-03-31T13:38:57.860Z,16.80
2019-03-31T13:41:29.460Z,16.90
2019-03-31T13:44:00.507Z,17.00
2019-03-31T13:46:31.724Z,17.00
2019-03-31T13:49:02.919Z,16.90
2019-03-31T13:51:34.028Z,16.80
2019-03-31T13:54:05.119Z,16.60
2019-03-31T13:56:37.783Z,16.50
2019-03-31T13:59:09.302Z,16.30
2019-03-31T14:01:41.947Z,16.30
2019-03-31T14:04:13.001Z,16.30
2019-03-31T14:06:44.071Z,16.20
2019-03-31T14:09:15.211Z,16.00
2019-03-31T14:11:48.555Z,15.80
2019-03-31T14:14:19.067Z,15.80
2019-03-31T14:16:54.689Z,15.80
2019-03-31T14:19:25.449Z,15.70
2019-03-31T14:21:58.015Z,15.60
2019-03-31T14:24:29.213Z,15.50
2019-03-31T14:27:00.795Z,15.40
2019-03-31T14:29:32.060Z,15.40
2019-03-31T14:32:03.417Z,15.40
2019-03-31T14:34:34.700Z,15.30
2019-03-31T14:37:05.816Z,15.20
2019-03-31T14:39:37.237Z,15.10
2019-03-31T14:42:10.031Z,15.10
2019-03-31T14:44:41.375Z,15.00
2019-03-31T14:47:12.613Z,14.80
2019-03-31T14:49:44.022Z,14.70
2019-03-31T14:52:27.234Z,14.60
2019-03-31T14:54:49.351Z,14.40
2019-03-31T14:57:24.251Z,14.30
2019-03-31T14:59:55.293Z,14.20
2019-03-31T15:02:27.139Z,14.10
2019-03-31T15:04:59.104Z,14.00
2019-03-31T15:07:30.323Z,14.00
2019-03-31T15:10:04.288Z,13.90
2019-03-31T15:12:35.827Z,13.90
2019-03-31T15:15:07.129Z,13.70
2019-03-31T15:17:38.295Z,13.70
2019-03-31T15:20:10.150Z,13.60
2019-03-31T15:22:42.810Z,13.60
2019-03-31T15:25:14.123Z,13.50
2019-03-31T15:27:45.110Z,13.50
2019-03-31T15:30:16.543Z,13.40
2019-03-31T15:32:47.532Z,13.40
2019-03-31T15:35:19.360Z,13.30
2019-03-31T15:37:50.428Z,13.20
2019-03-31T15:40:22.911Z,13.20
2019-03-31T15:42:55.607Z,13.10
2019-03-31T15:45:27.053Z,13.10
2019-03-31T15:47:58.617Z,13.10
2019-03-31T15:50:29.691Z,13.00
2019-03-31T15:53:01.153Z,13.00
2019-03-31T15:55:33.556Z,12.90
2019-03-31T15:58:05.597Z,12.90
2019-03-31T16:00:36.555Z,12.70
2019-03-31T16:03:07.806Z,12.60
2019-03-31T16:05:38.887Z,12.50
2019-03-31T16:08:09.733Z,12.40
2019-03-31T16:10:40.433Z,12.40
2019-03-31T16:13:11.272Z,12.30
2019-03-31T16:15:41.969Z,12.30
2019-03-31T16:18:12.993Z,12.20
2019-03-31T16:20:43.586Z,12.10
2019-03-31T16:23:14.317Z,12.10
2019-03-31T16:25:49.266Z,12.10
2019-03-31T16:28:20.393Z,12.00
2019-03-31T16:30:51.781Z,12.00
2019-03-31T16:33:22.127Z,11.90
2019-03-31T16:35:52.747Z,11.90
2019-03-31T16:38:25.918Z,11.90
2019-03-31T16:40:56.559Z,11.80
2019-03-31T16:43:27.244Z,11.80
2019-03-31T16:45:58.321Z,11.70
2019-03-31T16:48:28.719Z,11.70
2019-03-31T16:50:59.345Z,11.70
2019-03-31T16:53:29.813Z,11.60
2019-03-31T16:56:01.486Z,11.50
2019-03-31T16:58:32.326Z,11.50
2019-03-31T17:01:03.020Z,11.40
2019-03-31T17:03:33.681Z,11.40
2019-03-31T17:06:05.370Z,11.30
2019-03-31T17:08:35.922Z,11.20
2019-03-31T17:11:06.672Z,11.20
2019-03-31T17:13:37.414Z,11.10
2019-03-31T17:16:07.917Z,11.00
2019-03-31T17:18:38.313Z,11.00
2019-03-31T17:21:08.798Z,10.90
2019-03-31T17:23:39.618Z,10.80
2019-03-31T17:26:10.071Z,10.80
2019-03-31T17:28:40.727Z,10.80
2019-03-31T17:31:11.139Z,10.70
2019-03-31T17:33:41.605Z,10.70
2019-03-31T17:36:12.146Z,10.70
2019-03-31T17:38:42.891Z,10.60
2019-03-31T17:41:14.981Z,10.60
2019-03-31T17:43:46.732Z,10.60
2019-03-31T17:46:17.294Z,10.50
2019-03-31T17:48:47.827Z,10.40
2019-03-31T17:51:18.697Z,10.40
2019-03-31T17:53:49.256Z,10.30
2019-03-31T17:56:19.691Z,10.30
2019-03-31T17:58:50.150Z,10.20
2019-03-31T18:01:20.779Z,10.10
2019-03-31T18:03:51.536Z,10.10
2019-03-31T18:06:21.995Z,10.10
2019-03-31T18:08:52.661Z,10.00
2019-03-31T18:11:23.337Z,10.00
2019-03-31T18:13:53.904Z,9.90
2019-03-31T18:16:24.703Z,9.90
2019-03-31T18:18:55.854Z,9.80
2019-03-31T18:21:43.168Z,9.80
2019-03-31T18:24:13.646Z,9.70
2019-03-31T18:26:44.129Z,9.70
2019-03-31T18:29:14.780Z,9.60
2019-03-31T18:31:45.192Z,9.50
2019-03-31T18:34:15.666Z,9.50
2019-03-31T18:36:46.199Z,9.40
2019-03-31T18:39:17.434Z,9.40
2019-03-31T18:41:48.114Z,9.40
2019-03-31T18:44:20.647Z,9.40
2019-03-31T18:46:51.342Z,9.30
2019-03-31T18:49:21.775Z,9.30
2019-03-31T18:51:52.430Z,9.30
2019-03-31T18:54:37.842Z,9.20
2019-03-31T18:57:30.241Z,9.10
2019-03-31T19:00:18.393Z,9.10
2019-03-31T19:02:55.927Z,9.00
2019-03-31T19:05:45.540Z,8.90
2019-03-31T19:08:27.279Z,8.90
2019-03-31T19:11:19.628Z,8.80
2019-03-31T19:14:09.129Z,8.80
2019-03-31T19:16:49.734Z,8.70
2019-03-31T19:19:44.367Z,8.70
2019-03-31T19:22:32.663Z,8.70
2019-03-31T19:25:13.194Z,8.60
2019-03-31T19:28:07.342Z,8.50
2019-03-31T19:30:55.409Z,8.50
2019-03-31T19:34:03.823Z,8.40
2019-03-31T19:36:59.985Z,8.30
2019-03-31T19:39:52.082Z,8.20
2019-03-31T19:42:38.452Z,8.10
2019-03-31T19:45:26.920Z,8.10
2019-03-31T19:48:16.425Z,8.00
2019-03-31T19:51:04.189Z,8.00
2019-03-31T19:53:45.457Z,8.00
2019-03-31T19:56:34.791Z,7.90
2019-03-31T19:59:19.117Z,7.80
2019-03-31T20:02:08.830Z,7.70
2019-03-31T20:04:58.136Z,7.60
2019-03-31T20:07:46.980Z,7.50
2019-03-31T20:10:40.034Z,7.40
2019-03-31T20:13:28.706Z,7.30
2019-03-31T20:16:21.888Z,7.20
2019-03-31T20:19:26.473Z,7.10
2019-03-31T20:22:03.350Z,7.00
2019-03-31T20:24:55.974Z,6.90
2019-03-31T20:27:46.730Z,6.80
2019-03-31T20:30:36.362Z,6.70
2019-03-31T20:33:23.708Z,6.70
2019-03-31T20:36:22.120Z,6.60
2019-03-31T20:39:00.772Z,6.60
2019-03-31T20:41:54.760Z,6.50
2019-03-31T20:44:25.360Z,6.50
2019-03-31T20:46:55.852Z,6.40
2019-03-31T20:49:26.575Z,6.40
2019-03-31T20:51:58.194Z,6.30
2019-03-31T20:54:28.786Z,6.30
2019-03-31T20:56:59.300Z,6.30
2019-03-31T20:59:30.009Z,6.20
2019-03-31T21:02:01.138Z,6.20
2019-03-31T21:04:31.572Z,6.20
2019-03-31T21:07:02.153Z,6.10
2019-03-31T21:09:44.296Z,6.10
2019-03-31T21:12:04.846Z,6.10
2019-03-31T21:14:35.325Z,6.00
2019-03-31T21:17:05.915Z,5.90
2019-03-31T21:19:36.414Z,5.90
2019-03-31T21:22:06.738Z,5.90
2019-03-31T21:24:37.195Z,5.80
2019-03-31T21:27:07.866Z,5.80
2019-03-31T21:29:38.333Z,5.70
2019-03-31T21:32:09.450Z,5.70
2019-03-31T21:34:39.797Z,5.70
2019-03-31T21:37:10.212Z,5.60
2019-03-31T21:39:40.800Z,5.60
2019-03-31T21:42:11.304Z,5.60
2019-03-31T21:44:41.713Z,5.60
2019-03-31T21:47:12.100Z,5.50
2019-03-31T21:49:42.908Z,5.40
2019-03-31T21:52:13.320Z,5.40
2019-03-31T21:54:43.774Z,5.30
2019-03-31T21:57:14.097Z,5.30
2019-03-31T21:59:44.647Z,5.20
2019-03-31T22:02:15.088Z,5.20
2019-03-31T22:04:46.548Z,5.10
2019-03-31T22:07:16.986Z,5.10
2019-03-31T22:09:47.516Z,5.00
2019-03-31T22:12:17.919Z,5.00
2019-03-31T22:14:48.531Z,5.00
2019-03-31T22:17:19.026Z,4.90
2019-03-31T22:19:49.493Z,4.80
2019-03-31T22:22:19.990Z,4.80
2019-03-31T22:24:50.456Z,4.70
2019-03-31T22:27:21.147Z,4.70
2019-03-31T22:29:52.780Z,4.70
2019-03-31T22:32:24.415Z,4.60
2019-03-31T22:34:56.197Z,4.60
2019-03-31T22:37:26.712Z,4.50
2019-03-31T22:40:03.231Z,4.50
2019-03-31T22:42:33.776Z,4.40
2019-03-31T22:45:05.109Z,4.40
2019-03-31T22:47:37.267Z,4.40
2019-03-31T22:50:07.982Z,4.30
2019-03-31T22:52:38.670Z,4.30
2019-03-31T22:55:09.079Z,4.30
2019-03-31T22:57:39.727Z,4.30
2019-03-31T23:00:17.464Z,4.30
2019-03-31T23:02:49.574Z,4.20
2019-03-31T23:05:20.089Z,4.10
2019-03-31T23:07:50.512Z,4.00
2019-03-31T23:10:22.192Z,4.00
2019-03-31T23:12:52.705Z,3.90
2019-03-31T23:15:23.529Z,3.90
2019-03-31T23:17:53.954Z,3.80
2019-03-31T23:20:24.767Z,3.80
2019-03-31T23:22:55.149Z,3.80
2019-03-31T23:25:25.891Z,3.70
2019-03-31T23:27:56.719Z,3.70
2019-03-31T23:30:27.187Z,3.70
2019-03-31T23:32:57.933Z,3.60
2019-03-31T23:35:30.196Z,3.60
2019-03-31T23:38:00.655Z,3.60
2019-03-31T23:40:31.500Z,3.50
2019-03-31T23:43:02.429Z,3.50
2019-03-31T23:45:33.984Z,3.50
2019-03-31T23:48:04.570Z,3.50
2019-03-31T23:50:35.069Z,3.50
2019-03-31T23:53:05.507Z,3.50
2019-03-31T23:55:36.318Z,3.50
2019-03-31T23:58:06.998Z,3.50
